Time;durP1;ratioP1;P1;durP2;ratioP2;P2;SDS_P1;SDS_P2;PMS_P1;PMS_P2;Temp;Humidity;BMP_temperature;BMP_pressure;BME280_temperature;BME280_humidity;BME280_pressure;Samples;Min_cycle;Max_cycle;Signal;HPM_P1;HPM_P2
2020/12/11 00:00:46;;;;;;;20.52;11.30;;;;;;;1.16;73.99;100726.17;1818398;79;21147;-37
2020/12/11 00:03:14;;;;;;;27.32;11.60;;;;;;;1.14;74.12;100719.66;1818591;79;21159;-34
2020/12/11 00:05:41;;;;;;;27.40;11.75;;;;;;;1.14;73.98;100712.34;1818358;79;21180;-34
2020/12/11 00:08:09;;;;;;;33.73;12.37;;;;;;;1.15;73.83;100715.39;1818506;79;21301;-34
2020/12/11 00:10:37;;;;;;;20.48;10.60;;;;;;;1.14;73.75;100718.78;1818414;79;21161;-34
2020/12/11 00:13:05;;;;;;;31.70;11.65;;;;;;;1.12;73.61;100715.27;1818525;79;21645;-37
2020/12/11 00:15:33;;;;;;;25.60;12.23;;;;;;;1.06;73.69;100721.03;1748743;82;21634;-37
2020/12/11 00:18:01;;;;;;;22.00;11.60;;;;;;;1.03;73.64;100714.03;1818388;79;21222;-37
2020/12/11 00:20:28;;;;;;;26.77;12.85;;;;;;;1.00;73.59;100712.62;1818435;79;21128;-34
2020/12/11 00:22:56;;;;;;;19.50;11.30;;;;;;;0.98;73.68;100702.63;1818568;79;21159;-34
2020/12/11 00:25:25;;;;;;;24.80;11.28;;;;;;;0.97;73.55;100702.16;1818549;79;21163;-34
2020/12/11 00:27:53;;;;;;;24.07;12.45;;;;;;;0.95;73.45;100701.63;1748902;82;21297;-34
2020/12/11 00:30:21;;;;;;;22.50;11.55;;;;;;;0.90;73.53;100699.25;1818351;79;21187;-38
2020/12/11 00:32:49;;;;;;;25.37;14.15;;;;;;;0.88;73.56;100700.48;1818492;79;22136;-38
2020/12/11 00:35:17;;;;;;;28.12;12.33;;;;;;;0.85;73.44;100697.75;1818449;79;21844;-37
2020/12/11 00:37:45;;;;;;;25.75;12.43;;;;;;;0.84;73.35;100695.98;1748981;82;21619;-38
2020/12/11 00:40:12;;;;;;;20.17;11.25;;;;;;;0.84;73.27;100698.98;1818349;79;21184;-36
2020/12/11 00:42:40;;;;;;;21.57;11.78;;;;;;;0.77;73.18;100705.14;1818471;79;21888;-33
2020/12/11 00:45:08;;;;;;;24.07;11.83;;;;;;;0.71;73.33;100706.15;1748903;82;21179;-37
2020/12/11 00:47:37;;;;;;;30.35;10.68;;;;;;;0.69;73.44;100699.14;1818409;79;21175;-34
2020/12/11 00:50:05;;;;;;;19.67;11.18;;;;;;;0.68;73.34;100710.27;1818333;79;21194;-34
2020/12/11 00:52:33;;;;;;;35.85;17.60;;;;;;;0.63;73.33;100707.87;1749029;82;21207;-37
2020/12/11 00:55:02;;;;;;;33.02;12.82;;;;;;;0.58;73.44;100701.25;1818316;79;21147;-37
2020/12/11 00:57:29;;;;;;;21.17;11.48;;;;;;;0.56;73.20;100700.28;1748877;82;21705;-35
2020/12/11 00:59:57;;;;;;;31.17;14.15;;;;;;;0.50;73.17;100698.30;1818400;79;21321;-37
2020/12/11 01:02:25;;;;;;;29.07;14.33;;;;;;;0.45;73.33;100704.04;1818492;79;21171;-34
2020/12/11 01:04:54;;;;;;;21.85;11.40;;;;;;;0.40;73.51;100697.79;1818414;79;21187;-38
2020/12/11 01:07:22;;;;;;;19.92;10.72;;;;;;;0.38;73.57;100696.44;1818418;79;21614;-38
2020/12/11 01:09:51;;;;;;;26.33;11.10;;;;;;;0.36;73.67;100698.08;1818389;79;21183;-37
2020/12/11 01:12:19;;;;;;;25.12;11.65;;;;;;;0.34;73.74;100700.95;1818438;79;21150;-38
2020/12/11 01:14:47;;;;;;;17.17;10.05;;;;;;;0.31;73.95;100694.39;1748938;82;21124;-37
2020/12/11 01:17:18;;;;;;;25.45;11.85;;;;;;;0.30;73.82;100689.19;1810361;79;21301;-38
2020/12/11 01:19:46;;;;;;;20.23;10.63;;;;;;;0.25;73.64;100696.27;1809996;79;21171;-34
2020/12/11 01:22:14;;;;;;;21.25;10.72;;;;;;;0.20;73.67;100695.16;1809729;79;21626;-38
2020/12/11 01:24:41;;;;;;;25.25;11.60;;;;;;;0.17;73.67;100688.98;1740936;82;21175;-33
2020/12/11 01:27:13;;;;;;;20.92;10.75;;;;;;;0.14;73.69;100694.87;1809820;79;21195;-38
2020/12/11 01:29:41;;;;;;;22.27;10.53;;;;;;;0.12;73.71;100686.62;1788563;79;21310;-37
2020/12/11 01:32:09;;;;;;;25.30;11.28;;;;;;;0.09;73.70;100687.34;1809821;79;21309;-34
2020/12/11 01:34:36;;;;;;;19.85;10.88;;;;;;;0.07;73.79;100679.08;1740876;82;21192;-38
2020/12/11 01:37:05;;;;;;;15.23;9.43;;;;;;;0.04;73.85;100675.94;1809625;79;21195;-34
2020/12/11 01:39:33;;;;;;;23.15;11.20;;;;;;;0.03;73.84;100672.02;1771535;81;21145;-38
2020/12/11 01:42:01;;;;;;;21.95;10.82;;;;;;;0.00;73.95;100670.19;1809909;79;21167;-34
2020/12/11 01:44:28;;;;;;;22.87;11.93;;;;;;;-0.03;73.95;100665.77;1740989;82;21576;-37
2020/12/11 01:46:57;;;;;;;20.02;9.88;;;;;;;-0.06;74.01;100665.62;1809957;79;21230;-38
2020/12/11 01:49:25;;;;;;;27.17;10.68;;;;;;;-0.10;73.96;100668.85;1809888;79;21172;-34
2020/12/11 01:51:53;;;;;;;22.22;10.45;;;;;;;-0.15;74.03;100660.44;1740966;82;21219;-37
2020/12/11 01:54:21;;;;;;;25.02;11.38;;;;;;;-0.21;74.13;100663.59;1762171;79;21168;-38
2020/12/11 01:57:06;;;;;;;22.10;10.30;;;;;;;-0.27;74.23;100662.00;1741091;82;21223;-33
2020/12/11 01:59:42;;;;;;;23.10;11.53;;;;;;;-0.31;74.30;100654.94;1809888;79;21176;-38
2020/12/11 02:02:10;;;;;;;21.73;10.63;;;;;;;-0.36;74.35;100651.25;1809754;79;21199;-38
2020/12/11 02:04:38;;;;;;;21.82;10.72;;;;;;;-0.39;74.37;100654.98;1741016;82;21187;-38
2020/12/11 02:07:06;;;;;;;31.12;10.60;;;;;;;-0.41;74.49;100652.30;1809808;79;21179;-34
2020/12/11 02:09:34;;;;;;;20.12;10.48;;;;;;;-0.44;74.49;100648.72;1740968;82;21575;-34
2020/12/11 02:12:02;;;;;;;19.12;9.78;;;;;;;-0.44;74.60;100651.29;1809719;79;21222;-34
2020/12/11 02:14:31;;;;;;;24.77;11.10;;;;;;;-0.45;74.61;100646.96;1771386;81;21212;-34
2020/12/11 02:17:04;;;;;;;25.17;11.30;;;;;;;-0.44;74.70;100648.31;1740788;82;21769;-37
2020/12/11 02:19:33;;;;;;;22.75;11.00;;;;;;;-0.39;74.65;100636.98;1740976;82;21148;-34
2020/12/11 02:22:02;;;;;;;23.60;10.68;;;;;;;-0.35;74.39;100636.30;1809849;79;21203;-35
2020/12/11 02:24:30;;;;;;;18.62;10.43;;;;;;;-0.34;74.15;100642.83;1740914;82;21215;-38
2020/12/11 02:27:01;;;;;;;18.85;9.43;;;;;;;-0.36;74.06;100639.68;1809746;79;21610;-37
2020/12/11 02:29:29;;;;;;;19.77;10.03;;;;;;;-0.40;74.07;100633.53;1809959;79;21171;-35
2020/12/11 02:31:57;;;;;;;19.80;9.33;;;;;;;-0.43;74.17;100631.20;1809872;79;21195;-34
2020/12/11 02:34:25;;;;;;;20.30;9.10;;;;;;;-0.43;74.18;100634.64;1809708;79;21301;-38
2020/12/11 02:36:52;;;;;;;22.52;9.53;;;;;;;-0.43;74.03;100632.08;1740837;82;21310;-34
2020/12/11 02:39:21;;;;;;;17.92;9.18;;;;;;;-0.45;73.89;100635.39;1809892;79;21136;-38
2020/12/11 02:41:48;;;;;;;22.95;9.33;;;;;;;-0.48;73.98;100637.39;1771358;81;21184;-36
2020/12/11 02:44:18;;;;;;;27.30;9.38;;;;;;;-0.48;73.97;100634.81;1741050;82;21207;-34
2020/12/11 02:46:46;;;;;;;22.32;8.98;;;;;;;-0.54;73.93;100621.26;1809961;79;21626;-34
2020/12/11 02:49:14;;;;;;;15.80;8.98;;;;;;;-0.57;74.03;100620.24;1809761;79;21183;-38
2020/12/11 02:51:42;;;;;;;18.30;9.43;;;;;;;-0.62;73.98;100619.13;1740966;82;21229;-35
2020/12/11 02:54:10;;;;;;;16.52;8.78;;;;;;;-0.69;74.15;100619.23;1809850;79;21160;-34
2020/12/11 02:56:38;;;;;;;24.05;9.23;;;;;;;-0.73;74.18;100610.00;1809880;79;21140;-38
2020/12/11 02:59:05;;;;;;;18.87;9.55;;;;;;;-0.78;74.32;100616.19;1809754;79;21623;-34
2020/12/11 03:01:33;;;;;;;18.85;9.53;;;;;;;-0.84;74.42;100626.16;1771474;81;21619;-38
2020/12/11 03:04:01;;;;;;;20.90;9.70;;;;;;;-0.87;74.55;100625.61;1741122;82;21328;-38
2020/12/11 03:09:05;;;;;;;18.05;10.15;;;;;;;-0.84;74.75;100623.19;1803346;79;27772;-34
2020/12/11 03:11:34;;;;;;;22.32;9.18;;;;;;;-0.82;74.61;100624.13;1763017;80;21192;-37
2020/12/11 03:14:02;;;;;;;18.75;8.65;;;;;;;-0.80;74.48;100630.66;1761176;81;21182;-34
2020/12/11 03:16:29;;;;;;;18.10;9.00;;;;;;;-0.82;74.60;100623.25;1761011;80;21214;-34
2020/12/11 03:18:57;;;;;;;16.85;9.48;;;;;;;-0.79;74.61;100612.27;1760925;81;21154;-37
2020/12/11 03:21:25;;;;;;;15.30;7.97;;;;;;;-0.75;74.50;100616.36;1761116;80;21186;-37
2020/12/11 03:23:54;;;;;;;18.65;7.83;;;;;;;-0.73;74.46;100614.73;1761085;81;21143;-33
2020/12/11 03:26:22;;;;;;;17.37;9.03;;;;;;;-0.73;74.46;100623.73;1761078;80;21135;-33
2020/12/11 03:28:51;;;;;;;15.68;7.33;;;;;;;-0.74;74.49;100621.97;1760969;81;21336;-37
2020/12/11 03:31:19;;;;;;;15.00;8.03;;;;;;;-0.74;74.36;100624.55;1761088;80;21219;-35
2020/12/11 03:33:47;;;;;;;14.58;7.70;;;;;;;-0.78;74.32;100631.61;1761091;81;21212;-35
2020/12/11 03:36:20;;;;;;;17.15;7.50;;;;;;;-0.82;74.42;100629.67;1760967;80;21210;-34
2020/12/11 03:38:49;;;;;;;12.70;6.13;;;;;;;-0.86;74.55;100628.66;1761444;81;21575;-34
2020/12/11 03:41:17;;;;;;;15.43;7.70;;;;;;;-0.90;74.52;100628.41;1761158;80;21217;-38
2020/12/11 03:43:45;;;;;;;17.17;7.78;;;;;;;-0.97;74.66;100628.51;1760979;81;21713;-34
2020/12/11 03:46:20;;;;;;;16.82;8.05;;;;;;;-0.99;74.63;100629.22;1761078;80;21194;-34
2020/12/11 03:48:50;;;;;;;15.50;7.85;;;;;;;-1.04;74.70;100617.45;1761082;81;21202;-35
2020/12/11 03:51:21;;;;;;;17.20;8.60;;;;;;;-1.05;74.58;100626.34;1761042;80;21226;-38
2020/12/11 03:53:49;;;;;;;17.73;7.65;;;;;;;-1.10;74.67;100618.42;1761218;81;21182;-38
2020/12/11 03:56:18;;;;;;;14.60;8.43;;;;;;;-1.12;74.68;100621.29;1761056;80;21146;-38
2020/12/11 03:58:46;;;;;;;15.72;8.45;;;;;;;-1.17;74.72;100624.02;1761051;81;21202;-38
2020/12/11 04:01:14;;;;;;;18.98;8.65;;;;;;;-1.23;74.84;100628.43;1760902;80;21183;-34
2020/12/11 04:03:43;;;;;;;18.90;9.33;;;;;;;-1.23;74.93;100631.00;1760934;81;21171;-34
2020/12/11 04:06:18;;;;;;;20.82;10.03;;;;;;;-1.20;74.84;100635.42;1761180;80;21187;-34
2020/12/11 04:08:45;;;;;;;16.85;8.23;;;;;;;-1.20;74.80;100638.88;1751330;81;21626;-35
2020/12/11 04:11:13;;;;;;;21.77;9.40;;;;;;;-1.20;74.62;100632.86;1747898;81;21762;-34
2020/12/11 04:13:41;;;;;;;14.60;8.13;;;;;;;-1.24;74.58;100633.09;1747977;82;21191;-34
2020/12/11 04:16:09;;;;;;;13.38;8.25;;;;;;;-1.26;74.63;100638.55;1747807;81;21191;-34
2020/12/11 04:18:37;;;;;;;18.10;8.33;;;;;;;-1.28;74.61;100638.86;1747794;82;21187;-38
2020/12/11 04:21:14;;;;;;;19.67;8.18;;;;;;;-1.30;74.62;100646.01;1747203;81;21252;-38
2020/12/11 04:23:43;;;;;;;17.40;8.45;;;;;;;-1.36;74.58;100638.46;1747456;82;22101;-34
2020/12/11 04:26:10;;;;;;;17.42;8.68;;;;;;;-1.38;74.68;100646.89;1726758;82;21220;-37
2020/12/11 04:28:38;;;;;;;15.40;8.85;;;;;;;-1.43;74.66;100641.52;1747274;82;21325;-34
2020/12/11 04:31:06;;;;;;;15.00;8.43;;;;;;;-1.43;74.78;100640.23;1747505;81;21209;-33
2020/12/11 04:33:34;;;;;;;17.32;8.40;;;;;;;-1.46;74.67;100638.77;1747342;82;21227;-34
2020/12/11 04:36:02;;;;;;;17.00;7.37;;;;;;;-1.49;74.75;100647.60;1747254;81;21618;-36
2020/12/11 04:38:29;;;;;;;21.75;9.25;;;;;;;-1.51;74.77;100647.90;1747274;82;21179;-35
2020/12/11 04:40:59;;;;;;;18.80;7.95;;;;;;;-1.52;74.79;100651.67;1747487;81;21209;-38
2020/12/11 04:43:27;;;;;;;16.82;9.13;;;;;;;-1.53;74.70;100646.95;1747343;82;21203;-38
2020/12/11 04:45:54;;;;;;;16.02;8.63;;;;;;;-1.55;74.77;100656.26;1747241;81;21561;-38
2020/12/11 04:48:23;;;;;;;14.15;7.90;;;;;;;-1.55;74.77;100656.66;1747217;82;21159;-36
2020/12/11 04:50:53;;;;;;;14.83;8.45;;;;;;;-1.58;74.78;100652.23;1744066;81;21237;-39
2020/12/11 04:53:21;;;;;;;17.57;9.20;;;;;;;-1.60;74.74;100657.69;1726284;82;21191;-38
2020/12/11 04:55:49;;;;;;;23.15;12.03;;;;;;;-1.62;74.74;100653.77;1726212;82;21610;-38
2020/12/11 04:58:17;;;;;;;19.73;9.03;;;;;;;-1.64;74.73;100657.03;1703858;82;21341;-38
2020/12/11 05:08:20;;;;;;;16.75;8.33;;;;;;;-1.74;74.82;100656.03;1818781;79;23090;-33
2020/12/11 05:10:49;;;;;;;17.92;8.33;;;;;;;-1.83;74.88;100660.68;1726634;83;21233;-38
2020/12/11 05:13:23;;;;;;;20.08;9.73;;;;;;;-1.87;74.82;100660.50;1726021;83;21567;-39
2020/12/11 05:16:08;;;;;;;24.87;9.43;;;;;;;-1.92;74.80;100652.06;1695318;84;21195;-37
2020/12/11 05:18:39;;;;;;;16.25;8.98;;;;;;;-1.94;74.89;100649.83;1695458;84;21211;-33
2020/12/11 05:21:26;;;;;;;24.32;8.80;;;;;;;-2.00;74.90;100651.64;1725508;83;21656;-35
2020/12/11 05:24:04;;;;;;;22.15;9.45;;;;;;;-2.05;74.95;100655.63;1726080;83;21175;-38
2020/12/11 05:26:36;;;;;;;18.12;8.38;;;;;;;-2.10;75.00;100654.48;1686334;84;21185;-34
2020/12/11 05:29:04;;;;;;;16.90;7.58;;;;;;;-2.15;75.16;100653.34;1688964;85;21155;-34
2020/12/11 05:31:31;;;;;;;16.97;9.35;;;;;;;-2.18;75.23;100654.06;1692461;84;21198;-34
2020/12/11 05:34:13;;;;;;;14.40;8.08;;;;;;;-2.22;75.19;100653.80;1713425;84;21653;-38
2020/12/11 05:36:50;;;;;;;16.05;8.55;;;;;;;-2.26;75.22;100655.69;1714000;84;21167;-37
2020/12/11 05:39:34;;;;;;;16.62;7.83;;;;;;;-2.33;75.35;100652.31;1707910;84;21162;-35
2020/12/11 05:42:03;;;;;;;18.32;8.48;;;;;;;-2.36;75.50;100650.47;1713455;84;21210;-39
2020/12/11 05:44:33;;;;;;;17.55;8.35;;;;;;;-2.38;75.51;100646.91;1703959;84;21143;-38
2020/12/11 05:47:25;;;;;;;16.20;8.70;;;;;;;-2.39;75.50;100648.11;1699961;84;21171;-38
2020/12/11 05:49:53;;;;;;;23.27;10.08;;;;;;;-2.44;75.42;100652.97;1690311;84;21182;-35
2020/12/11 05:52:24;;;;;;;14.65;8.00;;;;;;;-2.49;75.56;100650.57;1703436;84;21182;-38
2020/12/11 05:54:54;;;;;;;16.65;8.63;;;;;;;-2.52;75.62;100653.82;1701789;84;21649;-38
2020/12/11 05:57:24;;;;;;;24.63;9.35;;;;;;;-2.53;75.68;100657.19;1693681;84;21244;-38
2020/12/11 05:59:52;;;;;;;17.62;9.30;;;;;;;-2.55;75.64;100656.22;1696761;84;21206;-39
2020/12/11 06:02:20;;;;;;;18.20;8.73;;;;;;;-2.58;75.73;100651.30;1695150;84;21170;-38
2020/12/11 06:04:48;;;;;;;20.10;9.15;;;;;;;-2.59;75.76;100647.86;1692480;84;21173;-35
2020/12/11 06:07:18;;;;;;;16.10;8.48;;;;;;;-2.58;75.77;100654.75;1639460;84;21167;-38
2020/12/11 06:09:48;;;;;;;14.47;7.92;;;;;;;-2.57;75.82;100655.62;1726906;82;21196;-34
2020/12/11 06:12:17;;;;;;;19.80;9.28;;;;;;;-2.55;75.77;100656.22;1731820;82;21689;-36
2020/12/11 06:15:19;;;;;;;16.73;8.70;;;;;;;-2.56;75.71;100657.39;1705098;83;21569;-35
2020/12/11 06:18:11;;;;;;;16.17;8.08;;;;;;;-2.58;75.68;100651.30;1724312;81;21199;-34
2020/12/11 06:20:41;;;;;;;15.60;8.28;;;;;;;-2.58;75.66;100642.34;1728275;81;21526;-37
2020/12/11 06:23:23;;;;;;;16.82;8.35;;;;;;;-2.62;75.58;100642.95;1723905;81;21201;-33
2020/12/11 06:25:55;;;;;;;;;;;;;;;-2.64;75.61;100648.39;1732917;81;21187;-37
2020/12/11 06:28:51;;;;;;;16.00;7.70;;;;;;;-2.64;75.73;100643.27;1725698;81;20466;-35
2020/12/11 06:31:22;;;;;;;17.87;7.65;;;;;;;-2.64;75.66;100644.15;1723082;81;21175;-35
2020/12/11 06:33:53;;;;;;;15.90;8.30;;;;;;;-2.63;75.73;100639.91;1724380;81;21686;-34
2020/12/11 06:36:21;;;;;;;23.77;9.25;;;;;;;-2.61;75.77;100635.74;1731315;81;21175;-35
2020/12/11 06:38:56;;;;;;;17.57;8.40;;;;;;;-2.58;75.63;100636.81;1720002;81;21166;-39
2020/12/11 06:41:32;;;;;;;14.53;7.87;;;;;;;-2.57;75.55;100634.73;1689220;84;21195;-39
2020/12/11 06:44:13;;;;;;;27.60;9.85;;;;;;;-2.55;75.56;100627.13;1728515;81;21598;-39
2020/12/11 06:46:41;;;;;;;16.30;9.18;;;;;;;-2.53;75.49;100625.16;1721503;81;21187;-39
2020/12/11 06:49:16;;;;;;;18.05;9.93;;;;;;;-2.52;75.30;100621.80;1730855;81;21664;-35
2020/12/11 06:51:53;;;;;;;16.65;9.53;;;;;;;-2.51;75.35;100617.14;1726154;81;21667;-39
2020/12/11 06:54:26;;;;;;;16.82;7.87;;;;;;;-2.51;75.22;100619.70;1725021;81;21688;-39
2020/12/11 06:56:59;;;;;;;17.90;8.88;;;;;;;-2.47;75.27;100612.69;1724158;81;21148;-39
2020/12/11 06:59:36;;;;;;;17.50;9.10;;;;;;;-2.45;75.08;100617.50;1729669;81;21557;-35
2020/12/11 07:02:14;;;;;;;21.65;9.28;;;;;;;-2.44;75.00;100609.41;1727436;81;21180;-36
2020/12/11 07:04:43;;;;;;;19.23;9.25;;;;;;;-2.45;75.03;100603.80;1729633;81;21248;-35
2020/12/11 07:07:14;;;;;;;18.07;8.93;;;;;;;-2.39;75.10;100608.39;1721983;81;21321;-35
2020/12/11 07:09:47;;;;;;;16.48;8.45;;;;;;;-2.35;75.12;100608.66;1721479;81;21154;-35
2020/12/11 07:12:15;;;;;;;;;;;;;;;-2.30;74.91;100604.67;1719601;81;21601;-35
2020/12/11 07:14:45;;;;;;;17.17;8.83;;;;;;;-2.30;74.63;100608.92;1723367;81;20176;-39
2020/12/11 07:17:31;;;;;;;21.02;10.15;;;;;;;-2.36;74.70;100610.74;1717215;81;21466;-39
2020/12/11 07:20:07;;;;;;;21.65;9.88;;;;;;;-2.37;74.84;100602.58;1660518;82;21207;-35
2020/12/11 07:22:35;;;;;;;29.82;12.37;;;;;;;-2.35;74.98;100606.50;1692354;81;21163;-35
2020/12/11 07:25:04;;;;;;;24.47;11.63;;;;;;;-2.30;75.05;100599.55;1691349;82;21283;-39
2020/12/11 07:27:31;;;;;;;20.17;10.18;;;;;;;-2.25;74.97;100596.84;1714025;81;21147;-35
2020/12/11 07:29:59;;;;;;;25.48;11.18;;;;;;;-2.18;75.04;100598.06;1717435;81;21780;-35
2020/12/11 07:32:27;;;;;;;19.52;9.73;;;;;;;-2.10;74.95;100592.95;1717386;81;21117;-35
2020/12/11 07:34:59;;;;;;;25.68;9.58;;;;;;;-2.01;74.79;100591.31;1712717;81;21766;-39
2020/12/11 07:38:11;;;;;;;15.70;8.98;;;;;;;-1.96;74.36;100586.91;1719792;81;21677;-34
2020/12/11 07:40:42;;;;;;;13.72;7.78;;;;;;;-1.95;74.06;100590.36;1718039;81;21170;-35
2020/12/11 07:43:11;;;;;;;19.37;10.85;;;;;;;-1.94;74.16;100585.70;1693939;81;21187;-38
2020/12/11 07:45:41;;;;;;;17.70;10.15;;;;;;;-1.94;73.96;100576.33;1716760;81;21190;-38
2020/12/11 07:48:42;;;;;;;19.65;9.60;;;;;;;-1.93;73.91;100576.80;1716122;81;21627;-34
2020/12/11 07:52:24;;;;;;;20.97;10.98;;;;;;;-1.89;74.02;100572.73;1718721;81;21195;-34
2020/12/11 07:55:30;;;;;;;19.10;8.68;;;;;;;-1.87;73.71;100575.85;1716322;81;21187;-39
2020/12/11 07:58:08;;;;;;;21.35;9.58;;;;;;;-1.85;73.88;100577.23;1688841;81;21202;-38
2020/12/11 08:00:38;;;;;;;21.85;9.93;;;;;;;-1.82;73.74;100578.67;1718494;81;21150;-38
2020/12/11 08:03:13;;;;;;;20.55;10.13;;;;;;;-1.85;73.67;100569.95;1716209;81;21194;-34
2020/12/11 08:05:49;;;;;;;21.65;10.48;;;;;;;-1.84;73.90;100578.12;1719338;81;21894;-37
2020/12/11 08:08:34;;;;;;;17.20;8.50;;;;;;;-1.81;73.66;100571.85;1723412;81;22065;-37
2020/12/11 08:11:07;;;;;;;20.05;9.40;;;;;;;-1.80;73.61;100568.08;1709536;82;21623;-33
2020/12/11 08:13:39;;;;;;;17.92;9.80;;;;;;;-1.77;73.77;100563.53;1705728;82;21176;-38
2020/12/11 08:16:15;;;;;;;18.20;9.30;;;;;;;-1.73;73.76;100568.91;1702904;81;21187;-33
2020/12/11 08:18:43;;;;;;;21.12;10.68;;;;;;;-1.66;73.77;100571.41;1684977;82;21336;-35
2020/12/11 08:21:11;;;;;;;21.12;9.88;;;;;;;-1.57;73.80;100568.02;1702446;82;21433;-37
2020/12/11 08:23:44;;;;;;;26.10;10.60;;;;;;;-1.48;73.20;100563.38;1718161;81;21146;-34
2020/12/11 08:26:17;;;;;;;19.57;10.38;;;;;;;-1.47;73.02;100560.41;1724497;82;21527;-34
2020/12/11 08:28:47;;;;;;;22.58;11.05;;;;;;;-1.50;73.00;100554.73;1723934;81;21167;-34
2020/12/11 08:31:23;;;;;;;26.57;10.53;;;;;;;-1.48;72.95;100553.11;1725584;81;21619;-34
2020/12/11 08:34:06;;;;;;;21.20;10.43;;;;;;;-1.47;73.01;100557.84;1721395;81;21147;-34
2020/12/11 08:36:44;;;;;;;23.55;10.70;;;;;;;-1.46;72.87;100543.80;1726088;81;21710;-34
2020/12/11 08:39:25;;;;;;;23.92;12.05;;;;;;;-1.43;73.09;100543.09;1726634;82;21128;-34
2020/12/11 08:45:15;;;;;;;26.45;12.47;;;;;;;-1.36;72.76;100534.90;1732076;81;21291;-38
2020/12/11 08:47:59;;;;;;;20.55;10.50;;;;;;;-1.35;72.79;100532.41;1726735;81;21477;-38
2020/12/11 08:50:29;;;;;;;20.60;11.40;;;;;;;-1.33;72.77;100523.52;1725690;81;21722;-33
2020/12/11 08:52:53;;;;;;;29.25;11.50;;;;;;;-1.30;72.76;100522.38;1726565;81;22056;-34
2020/12/11 08:55:22;;;;;;;25.48;11.83;;;;;;;-1.30;72.69;100512.11;1725311;81;21140;-33
2020/12/11 08:57:50;;;;;;;21.60;10.98;;;;;;;-1.28;72.73;100505.76;1724868;81;21181;-38
2020/12/11 09:00:18;;;;;;;22.58;10.95;;;;;;;-1.30;72.66;100505.69;1720765;81;21656;-37
2020/12/11 09:02:46;;;;;;;23.50;10.53;;;;;;;-1.30;72.57;100506.09;1728692;81;21505;-34
2020/12/11 09:05:14;;;;;;;26.85;11.97;;;;;;;-1.29;72.64;100496.30;1722815;81;21162;-34
2020/12/11 09:07:41;;;;;;;19.52;10.85;;;;;;;-1.28;72.73;100497.65;1727129;81;21667;-34
2020/12/11 09:10:10;;;;;;;25.57;11.97;;;;;;;-1.25;72.72;100489.23;1733877;81;21135;-34
2020/12/11 09:12:37;;;;;;;21.33;10.28;;;;;;;-1.28;72.71;100479.68;1727078;81;21174;-34
2020/12/11 09:15:09;;;;;;;20.00;10.25;;;;;;;-1.30;72.82;100485.16;1730545;81;21456;-38
2020/12/11 09:17:37;;;;;;;23.90;11.53;;;;;;;-1.32;72.94;100485.48;1728185;81;21131;-38
2020/12/11 09:20:05;;;;;;;25.72;12.00;;;;;;;-1.27;73.21;100489.58;1733243;81;21143;-34
2020/12/11 09:22:34;;;;;;;23.55;10.80;;;;;;;-1.20;73.18;100492.52;1730316;81;21782;-38
2020/12/11 09:25:02;;;;;;;19.32;11.08;;;;;;;-1.19;73.08;100486.98;1726313;81;21348;-38
2020/12/11 09:27:31;;;;;;;19.60;11.75;;;;;;;-1.18;72.95;100491.30;1730685;81;21181;-34
2020/12/11 09:30:12;;;;;;;19.23;10.65;;;;;;;-1.20;72.87;100483.53;1731992;81;21175;-34
2020/12/11 09:35:15;;;;;;;22.98;12.13;;;;;;;-1.21;73.10;100489.88;1735821;81;21647;-34
2020/12/11 09:37:49;;;;;;;22.27;12.53;;;;;;;-1.18;72.99;100485.77;1732071;82;21867;-34
2020/12/11 09:40:13;;;;;;;20.70;10.70;;;;;;;-1.17;72.93;100484.95;1728049;81;21175;-37
2020/12/11 09:42:54;;;;;;;22.25;12.50;;;;;;;-1.17;73.03;100481.09;1732149;81;21178;-37
2020/12/11 09:45:25;;;;;;;25.05;11.38;;;;;;;-1.13;73.08;100479.17;1729205;81;21555;-37
2020/12/11 09:53:03;;;;;;;24.32;12.88;;;;;;;-1.02;72.96;100479.70;1729811;81;21526;-38
2020/12/11 09:55:33;;;;;;;22.10;12.95;;;;;;;-1.01;72.96;100468.62;1734962;81;21668;-38
